Time;durP1;ratioP1;P1;durP2;ratioP2;P2;SDS_P1;SDS_P2;PMS_P1;PMS_P2;Temp;Humidity;BMP_temperature;BMP_pressure;BME280_temperature;BME280_humidity;BME280_pressure;Samples;Min_cycle;Max_cycle;Signal;HPM_P1;HPM_P2
2023/12/05 00:01:42;;;;;;;0.40;0.40;;;1.80;99.90;;;;;;5037288;28;20505;-78
2023/12/05 00:04:09;;;;;;;3.87;0.80;;;1.80;99.90;;;;;;5037698;28;20978;-78
2023/12/05 00:06:37;;;;;;;0.70;0.30;;;1.80;99.90;;;;;;5037550;28;20474;-78
2023/12/05 00:09:04;;;;;;;1.13;0.70;;;1.90;99.90;;;;;;5037703;28;20447;-78
2023/12/05 00:11:31;;;;;;;0.40;0.40;;;1.90;99.90;;;;;;5037852;28;20763;-78
2023/12/05 00:13:57;;;;;;;1.27;0.67;;;1.90;99.90;;;;;;5038317;28;20442;-78
2023/12/05 00:16:27;;;;;;;0.77;0.77;;;2.00;99.90;;;;;;5039075;28;20470;-78
2023/12/05 00:18:53;;;;;;;0.40;0.40;;;2.00;99.90;;;;;;5038890;28;20482;-79
2023/12/05 00:21:20;;;;;;;0.30;0.30;;;2.00;99.90;;;;;;5038568;28;20486;-79
2023/12/05 00:23:47;;;;;;;0.63;0.43;;;2.00;99.90;;;;;;5038810;28;20443;-79
2023/12/05 00:26:14;;;;;;;0.60;0.60;;;2.10;99.90;;;;;;5039331;28;20470;-79
2023/12/05 00:28:40;;;;;;;0.40;0.30;;;2.10;99.90;;;;;;5039051;28;20924;-79
2023/12/05 00:31:07;;;;;;;1.07;0.93;;;2.10;99.90;;;;;;5039891;28;20450;-79
2023/12/05 00:33:35;;;;;;;0.40;0.40;;;2.10;99.90;;;;;;5039302;28;20443;-79
2023/12/05 00:36:02;;;;;;;0.30;0.30;;;2.20;99.90;;;;;;5039330;28;20493;-79
2023/12/05 00:38:29;;;;;;;0.40;0.30;;;2.20;99.90;;;;;;5039733;28;20809;-79
2023/12/05 00:40:58;;;;;;;0.30;0.30;;;2.20;99.90;;;;;;5039075;28;20443;-79
2023/12/05 00:43:25;;;;;;;3.30;0.93;;;2.30;99.90;;;;;;5039923;28;20452;-79
2023/12/05 00:45:52;;;;;;;0.40;0.30;;;2.20;99.90;;;;;;5039023;28;20467;-79
2023/12/05 00:48:19;;;;;;;2.63;0.50;;;2.10;99.90;;;;;;5038209;28;20442;-79
2023/12/05 00:50:47;;;;;;;0.33;0.33;;;2.10;99.90;;;;;;5039018;28;20951;-79
2023/12/05 00:53:14;;;;;;;0.57;0.57;;;2.10;99.90;;;;;;5038684;28;20443;-79
2023/12/05 00:55:40;;;;;;;1.07;0.40;;;2.20;99.90;;;;;;5038129;28;20463;-79
2023/12/05 00:58:07;;;;;;;0.60;0.37;;;2.20;99.90;;;;;;5038507;28;20438;-79
2023/12/05 01:00:34;;;;;;;0.50;0.50;;;2.10;99.90;;;;;;5037792;28;20454;-79
2023/12/05 01:03:00;;;;;;;0.80;0.60;;;2.10;99.90;;;;;;5037954;28;20485;-79
2023/12/05 01:05:27;;;;;;;1.17;0.67;;;2.20;99.90;;;;;;5037456;28;20911;-79
2023/12/05 01:07:55;;;;;;;0.87;0.60;;;2.10;99.90;;;;;;5037626;28;20427;-79
2023/12/05 01:10:22;;;;;;;0.30;0.30;;;2.10;99.90;;;;;;5042534;28;20447;-79
2023/12/05 01:12:49;;;;;;;0.40;0.30;;;2.20;99.90;;;;;;5046443;28;20457;-79
2023/12/05 01:15:16;;;;;;;0.60;0.60;;;2.20;99.90;;;;;;5034891;28;20443;-79
2023/12/05 01:17:42;;;;;;;0.50;0.50;;;2.20;99.90;;;;;;5034541;28;20471;-79
2023/12/05 01:20:11;;;;;;;0.60;0.60;;;2.30;99.90;;;;;;5035265;28;20450;-79
2023/12/05 01:22:38;;;;;;;0.43;0.43;;;2.30;99.90;;;;;;5034549;28;20922;-79
2023/12/05 01:25:07;;;;;;;0.70;0.50;;;2.30;99.90;;;;;;5034524;28;20453;-79
2023/12/05 01:27:33;;;;;;;0.30;0.27;;;2.30;99.90;;;;;;5034697;28;20462;-79
2023/12/05 01:30:00;;;;;;;0.60;0.60;;;2.30;99.90;;;;;;5034870;28;20443;-79
2023/12/05 01:32:27;;;;;;;0.43;0.43;;;2.30;99.90;;;;;;5034879;28;20443;-79
2023/12/05 01:34:54;;;;;;;0.70;0.70;;;2.40;99.90;;;;;;5035066;28;20439;-79
2023/12/05 01:37:20;;;;;;;0.80;0.40;;;2.40;99.90;;;;;;5034435;28;21041;-79
2023/12/05 01:39:47;;;;;;;2.57;1.03;;;2.40;99.90;;;;;;5035013;28;20442;-79
2023/12/05 01:42:15;;;;;;;0.30;0.30;;;2.30;99.90;;;;;;5038540;28;20485;-79
2023/12/05 01:44:42;;;;;;;3.03;0.97;;;2.30;99.90;;;;;;5038342;28;20450;-79
2023/12/05 01:47:10;;;;;;;0.50;0.50;;;2.30;99.90;;;;;;5037811;28;20851;-79
2023/12/05 01:49:37;;;;;;;0.97;0.60;;;2.30;99.90;;;;;;5038352;28;20451;-79
2023/12/05 01:52:05;;;;;;;1.27;1.17;;;2.20;99.90;;;;;;5037110;28;20435;-79
2023/12/05 01:54:32;;;;;;;1.07;0.97;;;2.20;99.90;;;;;;5036806;28;20447;-79
2023/12/05 01:57:01;;;;;;;2.03;1.20;;;2.20;99.90;;;;;;5036919;28;20471;-79
2023/12/05 01:59:29;;;;;;;1.40;0.77;;;2.10;99.90;;;;;;5036710;28;20964;-79
2023/12/05 02:01:56;;;;;;;0.60;0.53;;;2.10;99.90;;;;;;5036707;28;20486;-79
2023/12/05 02:04:22;;;;;;;0.60;0.60;;;2.10;99.90;;;;;;5037135;28;20505;-79
2023/12/05 02:06:50;;;;;;;0.50;0.50;;;2.10;99.90;;;;;;5036712;28;20492;-79
2023/12/05 02:09:19;;;;;;;0.90;0.80;;;2.10;99.90;;;;;;5036626;28;20438;-79
2023/12/05 02:11:46;;;;;;;0.60;0.60;;;2.10;99.90;;;;;;5036059;28;20982;-79
2023/12/05 02:14:13;;;;;;;3.80;0.60;;;2.00;99.90;;;;;;5036712;28;20449;-79
2023/12/05 02:16:47;;;;;;;0.70;0.47;;;2.00;99.90;;;;;;5036662;28;20462;-79
2023/12/05 02:19:39;;;;;;;0.50;0.50;;;1.90;99.90;;;;;;5036757;28;20446;-79
2023/12/05 02:22:12;;;;;;;0.97;0.67;;;2.00;99.90;;;;;;5036392;28;20485;-79
2023/12/05 02:24:46;;;;;;;0.30;0.30;;;2.00;99.90;;;;;;5036673;28;20423;-78
2023/12/05 02:27:18;;;;;;;2.63;0.87;;;2.00;99.90;;;;;;5036540;28;20512;-78
2023/12/05 02:29:50;;;;;;;0.50;0.30;;;2.00;99.90;;;;;;5036485;28;20426;-79
2023/12/05 02:32:17;;;;;;;0.40;0.40;;;2.00;99.90;;;;;;5035912;28;20915;-78
2023/12/05 02:34:44;;;;;;;2.27;1.37;;;1.90;99.90;;;;;;5035610;28;20504;-78
2023/12/05 02:37:19;;;;;;;0.50;0.50;;;1.90;99.90;;;;;;5035509;28;20462;-78
2023/12/05 02:39:54;;;;;;;2.63;1.17;;;2.00;99.90;;;;;;5035656;28;20453;-78
2023/12/05 02:42:23;;;;;;;1.00;1.00;;;2.00;99.90;;;;;;5035435;28;20470;-78
2023/12/05 02:44:53;;;;;;;0.50;0.40;;;2.00;99.90;;;;;;5034765;28;20447;-78
2023/12/05 02:47:23;;;;;;;0.60;0.40;;;2.00;99.90;;;;;;5035378;28;20470;-78
2023/12/05 02:49:49;;;;;;;1.93;1.10;;;2.10;99.90;;;;;;5034804;28;20443;-78
2023/12/05 02:52:16;;;;;;;1.70;0.93;;;2.10;99.90;;;;;;5034634;28;20966;-78
2023/12/05 02:54:43;;;;;;;1.23;1.07;;;2.10;99.90;;;;;;5034768;28;20451;-78
2023/12/05 02:57:10;;;;;;;0.67;0.67;;;2.10;99.90;;;;;;5034877;28;20460;-78
2023/12/05 02:59:36;;;;;;;1.90;0.60;;;2.10;99.90;;;;;;5035286;28;20442;-78
2023/12/05 03:02:05;;;;;;;0.60;0.40;;;2.00;99.90;;;;;;5035193;28;20478;-78
2023/12/05 03:04:31;;;;;;;1.17;0.93;;;2.00;99.90;;;;;;5034523;28;20453;-78
2023/12/05 03:06:58;;;;;;;2.73;1.57;;;2.00;99.90;;;;;;5033871;28;20478;-78
2023/12/05 03:09:25;;;;;;;0.53;0.53;;;2.00;99.90;;;;;;5034214;28;20800;-78
2023/12/05 03:11:52;;;;;;;0.70;0.70;;;2.00;99.90;;;;;;5037363;28;20455;-78
2023/12/05 03:14:18;;;;;;;1.13;0.57;;;2.00;99.90;;;;;;5037339;28;20504;-78
2023/12/05 03:16:45;;;;;;;3.50;0.50;;;2.10;99.90;;;;;;5037601;28;20471;-78
2023/12/05 03:19:13;;;;;;;1.23;0.60;;;2.20;99.90;;;;;;5038180;28;20473;-78
2023/12/05 03:21:40;;;;;;;0.40;0.40;;;2.20;99.90;;;;;;5046639;28;20457;-77
2023/12/05 03:24:07;;;;;;;1.70;0.47;;;2.20;99.90;;;;;;5037175;28;20541;-78
2023/12/05 03:26:33;;;;;;;1.07;0.77;;;2.30;99.90;;;;;;5037196;28;20458;-78
2023/12/05 03:29:00;;;;;;;1.43;1.33;;;2.30;99.90;;;;;;5036832;28;20451;-78
2023/12/05 03:31:27;;;;;;;1.00;0.97;;;2.30;99.90;;;;;;5037274;28;20442;-78
2023/12/05 03:33:53;;;;;;;0.97;0.97;;;2.30;99.90;;;;;;5037172;28;20439;-78
2023/12/05 03:36:21;;;;;;;1.27;0.97;;;2.30;99.90;;;;;;5039356;28;20467;-78
2023/12/05 03:38:48;;;;;;;1.17;0.80;;;2.40;99.90;;;;;;5037616;28;20935;-78
2023/12/05 03:41:15;;;;;;;1.97;0.90;;;2.40;99.90;;;;;;5036895;28;20443;-78
2023/12/05 03:43:42;;;;;;;1.87;0.63;;;2.40;99.90;;;;;;5037133;28;20481;-78
2023/12/05 03:46:08;;;;;;;0.80;0.77;;;2.30;99.90;;;;;;5036899;28;20469;-78
2023/12/05 03:48:37;;;;;;;0.57;0.50;;;2.30;99.90;;;;;;5036845;28;20453;-78
2023/12/05 03:51:04;;;;;;;0.80;0.70;;;2.40;99.90;;;;;;5036379;28;20455;-78
2023/12/05 03:53:32;;;;;;;1.00;0.73;;;2.40;99.90;;;;;;5036897;28;20824;-78
2023/12/05 03:55:58;;;;;;;1.67;0.67;;;2.30;99.90;;;;;;5037276;28;20458;-78
2023/12/05 03:58:25;;;;;;;0.93;0.43;;;2.30;99.90;;;;;;5037256;28;20446;-78
2023/12/05 04:00:52;;;;;;;0.77;0.77;;;2.20;99.90;;;;;;5036950;28;20447;-78
2023/12/05 04:03:20;;;;;;;1.07;0.50;;;2.20;99.90;;;;;;5037373;28;20478;-78
2023/12/05 04:05:47;;;;;;;2.17;1.20;;;2.20;99.90;;;;;;5037713;28;20478;-78
2023/12/05 04:08:13;;;;;;;0.90;0.60;;;2.10;99.90;;;;;;5037683;28;20412;-78
2023/12/05 04:10:41;;;;;;;1.23;0.77;;;2.10;99.90;;;;;;5037724;28;20474;-78
2023/12/05 04:13:08;;;;;;;0.57;0.57;;;2.10;99.90;;;;;;5036800;28;20932;-78
2023/12/05 04:15:35;;;;;;;0.83;0.40;;;2.10;99.90;;;;;;5037432;28;20486;-78
2023/12/05 04:18:02;;;;;;;0.67;0.67;;;2.10;99.90;;;;;;5037898;28;20455;-78
2023/12/05 04:20:28;;;;;;;0.60;0.60;;;2.10;99.90;;;;;;5037973;28;20451;-78
2023/12/05 04:22:55;;;;;;;0.57;0.57;;;2.10;99.90;;;;;;5036615;28;20482;-78
2023/12/05 04:25:22;;;;;;;0.30;0.20;;;2.20;99.90;;;;;;5037363;28;20447;-78
2023/12/05 04:27:50;;;;;;;0.80;0.50;;;2.20;99.90;;;;;;5038199;28;20454;-78
2023/12/05 04:30:17;;;;;;;0.77;0.70;;;2.20;99.90;;;;;;5038238;28;20442;-78
2023/12/05 04:32:43;;;;;;;0.50;0.40;;;2.20;99.90;;;;;;5037165;28;20935;-78
2023/12/05 04:35:10;;;;;;;0.50;0.50;;;2.30;99.90;;;;;;5037152;28;20439;-78
2023/12/05 04:37:37;;;;;;;0.73;0.40;;;2.30;99.90;;;;;;5036682;28;20828;-78
2023/12/05 04:40:05;;;;;;;0.47;0.47;;;2.30;99.90;;;;;;5035904;28;20480;-78
2023/12/05 04:42:32;;;;;;;0.40;0.40;;;2.30;99.90;;;;;;5036326;28;20479;-78
2023/12/05 04:45:00;;;;;;;1.73;0.53;;;2.30;99.90;;;;;;5036138;28;20450;-78
2023/12/05 04:47:26;;;;;;;0.30;0.30;;;2.40;99.90;;;;;;5036344;28;20469;-78
2023/12/05 04:49:54;;;;;;;0.83;0.60;;;2.40;99.90;;;;;;5036938;28;20430;-78
2023/12/05 04:52:20;;;;;;;1.70;1.00;;;2.50;99.90;;;;;;5036612;28;20450;-78
2023/12/05 04:54:47;;;;;;;0.53;0.53;;;2.50;99.90;;;;;;5036451;28;20447;-78
2023/12/05 04:57:14;;;;;;;0.40;0.40;;;2.50;99.90;;;;;;5035908;28;20830;-78
2023/12/05 04:59:40;;;;;;;1.13;0.40;;;2.60;99.90;;;;;;5036223;28;20455;-78
2023/12/05 05:02:09;;;;;;;1.37;1.27;;;2.60;99.90;;;;;;5035662;28;20939;-78
2023/12/05 05:04:35;;;;;;;0.47;0.47;;;2.60;99.90;;;;;;5035529;28;20439;-78
2023/12/05 05:07:03;;;;;;;0.70;0.60;;;2.60;99.90;;;;;;5034791;28;20493;-78
2023/12/05 05:09:30;;;;;;;0.73;0.47;;;2.60;99.90;;;;;;5035746;28;20991;-78
2023/12/05 05:11:57;;;;;;;1.57;0.60;;;2.60;99.90;;;;;;5035539;28;20442;-78
2023/12/05 05:14:24;;;;;;;0.73;0.60;;;2.60;99.90;;;;;;5035874;28;20438;-78
2023/12/05 05:16:50;;;;;;;0.30;0.30;;;2.60;99.90;;;;;;5035848;28;20467;-78
2023/12/05 05:19:18;;;;;;;0.97;0.87;;;2.60;99.90;;;;;;5035709;28;20449;-78
2023/12/05 05:21:45;;;;;;;0.40;0.40;;;2.60;99.90;;;;;;5036086;28;20449;-78
2023/12/05 05:24:12;;;;;;;0.47;0.40;;;2.70;99.90;;;;;;5036057;28;20478;-78
2023/12/05 05:26:38;;;;;;;1.60;0.67;;;2.60;99.90;;;;;;5039601;28;20483;-78
2023/12/05 05:29:05;;;;;;;1.03;0.50;;;2.60;99.90;;;;;;5042842;28;20443;-78
2023/12/05 05:31:32;;;;;;;0.80;0.80;;;2.70;99.90;;;;;;5039236;28;20819;-78
2023/12/05 05:33:58;;;;;;;0.60;0.40;;;2.60;99.90;;;;;;5035107;28;20453;-78
2023/12/05 05:36:26;;;;;;;0.47;0.47;;;2.60;99.90;;;;;;5034735;28;20987;-78
2023/12/05 05:38:53;;;;;;;0.40;0.30;;;2.50;99.90;;;;;;5035108;28;20454;-78
2023/12/05 05:41:20;;;;;;;4.27;1.23;;;2.50;99.90;;;;;;5035552;28;20453;-78
2023/12/05 05:43:47;;;;;;;1.00;0.50;;;2.40;99.90;;;;;;5035425;28;20485;-78
2023/12/05 05:46:13;;;;;;;0.57;0.30;;;2.40;99.90;;;;;;5035906;28;20469;-78
2023/12/05 05:48:40;;;;;;;0.67;0.67;;;2.40;99.90;;;;;;5036187;28;20971;-78
2023/12/05 05:51:07;;;;;;;0.60;0.50;;;2.30;99.90;;;;;;5036709;28;20541;-78
2023/12/05 05:53:35;;;;;;;1.53;0.40;;;2.30;99.90;;;;;;5036605;28;20465;-78
2023/12/05 05:56:02;;;;;;;0.70;0.60;;;2.20;99.90;;;;;;5036095;28;20470;-78
2023/12/05 05:58:29;;;;;;;1.67;0.73;;;2.20;99.90;;;;;;5036241;28;20446;-78
2023/12/05 06:00:56;;;;;;;0.83;0.57;;;2.20;99.90;;;;;;5036404;28;20453;-78
2023/12/05 06:03:23;;;;;;;0.60;0.60;;;2.20;99.90;;;;;;5036176;28;20510;-78
2023/12/05 06:05:50;;;;;;;0.47;0.47;;;2.20;99.90;;;;;;5035899;28;20833;-78
2023/12/05 06:08:17;;;;;;;3.23;0.77;;;2.10;99.90;;;;;;5035807;28;20457;-78
2023/12/05 06:10:45;;;;;;;0.40;0.40;;;2.10;99.90;;;;;;5035980;28;20447;-78
2023/12/05 06:13:12;;;;;;;0.40;0.40;;;2.10;99.90;;;;;;5036384;28;20442;-78
2023/12/05 06:15:39;;;;;;;0.50;0.30;;;2.10;99.90;;;;;;5035429;28;20442;-78
2023/12/05 06:18:06;;;;;;;2.03;0.80;;;2.10;99.90;;;;;;5035397;28;20473;-78
2023/12/05 06:20:31;;;;;;;2.13;0.60;;;2.20;99.90;;;;;;5034956;28;20457;-78
2023/12/05 06:22:58;;;;;;;0.30;0.30;;;2.10;99.90;;;;;;5035499;28;20565;-78
2023/12/05 06:25:25;;;;;;;0.40;0.40;;;2.10;99.90;;;;;;5034806;28;20552;-78
2023/12/05 06:27:53;;;;;;;0.40;0.40;;;2.10;99.90;;;;;;5036115;28;20439;-78
2023/12/05 06:30:20;;;;;;;0.77;0.60;;;2.10;99.90;;;;;;5035631;28;20442;-78
2023/12/05 06:32:47;;;;;;;0.40;0.30;;;2.10;99.90;;;;;;5035172;28;20480;-78
2023/12/05 06:35:14;;;;;;;0.40;0.40;;;2.00;99.90;;;;;;5035144;28;20449;-78
2023/12/05 06:37:41;;;;;;;0.40;0.40;;;2.00;99.90;;;;;;5034658;28;20462;-78
2023/12/05 06:40:09;;;;;;;0.70;0.43;;;2.00;99.90;;;;;;5034809;28;20815;-78
2023/12/05 06:42:35;;;;;;;1.13;0.40;;;2.00;99.90;;;;;;5034792;28;20443;-78
2023/12/05 06:45:04;;;;;;;1.60;0.77;;;2.10;99.90;;;;;;5035798;28;20986;-78
2023/12/05 06:47:31;;;;;;;0.40;0.37;;;2.10;99.90;;;;;;5039005;28;20470;-78
2023/12/05 06:50:00;;;;;;;1.53;0.93;;;2.10;99.90;;;;;;5038920;28;20415;-78
2023/12/05 06:52:26;;;;;;;0.30;0.30;;;2.10;99.90;;;;;;5038758;28;20446;-78
2023/12/05 06:54:53;;;;;;;1.00;0.53;;;2.10;99.90;;;;;;5038665;28;20438;-78
2023/12/05 06:57:20;;;;;;;0.70;0.57;;;2.10;99.90;;;;;;5038883;28;20454;-78
2023/12/05 06:59:46;;;;;;;0.67;0.60;;;2.10;99.90;;;;;;5038960;28;20443;-78
2023/12/05 07:02:15;;;;;;;0.60;0.30;;;2.10;99.90;;;;;;5038485;28;20449;-78
2023/12/05 07:04:42;;;;;;;0.30;0.30;;;2.10;99.90;;;;;;5038852;28;20492;-78
2023/12/05 07:07:09;;;;;;;0.80;0.80;;;2.10;99.90;;;;;;5038128;28;20497;-78
2023/12/05 07:09:36;;;;;;;0.40;0.30;;;2.10;99.90;;;;;;5038322;28;20991;-78
2023/12/05 07:12:03;;;;;;;0.30;0.20;;;2.10;99.90;;;;;;5039110;28;20438;-78
2023/12/05 07:14:29;;;;;;;0.47;0.47;;;2.20;99.90;;;;;;5039349;28;20447;-78
2023/12/05 07:16:56;;;;;;;0.73;0.30;;;2.10;99.90;;;;;;5041451;28;20490;-78
2023/12/05 07:19:24;;;;;;;0.87;0.53;;;2.20;99.90;;;;;;5038763;28;20455;-78
2023/12/05 07:21:51;;;;;;;0.40;0.40;;;2.20;99.90;;;;;;5038528;28;20450;-78
2023/12/05 07:24:18;;;;;;;0.40;0.30;;;2.30;99.90;;;;;;5039087;28;20557;-78
2023/12/05 07:26:46;;;;;;;0.40;0.40;;;2.20;99.90;;;;;;5038851;28;20474;-78
2023/12/05 07:29:13;;;;;;;0.90;0.40;;;2.30;99.90;;;;;;5038602;28;20443;-78
2023/12/05 07:31:40;;;;;;;0.40;0.40;;;2.30;99.90;;;;;;5038872;28;20827;-78
2023/12/05 07:34:06;;;;;;;0.60;0.50;;;2.30;99.90;;;;;;5038766;28;20446;-78
2023/12/05 07:36:35;;;;;;;0.40;0.40;;;2.30;99.90;;;;;;5039044;28;20467;-78
2023/12/05 07:39:01;;;;;;;0.43;0.40;;;2.30;99.90;;;;;;5039461;28;20446;-78
2023/12/05 07:41:28;;;;;;;1.13;0.77;;;2.30;99.90;;;;;;5040215;28;20533;-79
2023/12/05 07:43:55;;;;;;;0.30;0.30;;;2.40;99.90;;;;;;5040688;28;20479;-78
2023/12/05 07:46:21;;;;;;;1.30;0.93;;;2.40;99.90;;;;;;5040561;28;20470;-78
2023/12/05 07:48:48;;;;;;;0.30;0.30;;;2.40;99.90;;;;;;5040922;28;20453;-79
2023/12/05 07:51:16;;;;;;;0.40;0.40;;;2.50;99.90;;;;;;5040371;28;20546;-78
2023/12/05 07:53:44;;;;;;;0.30;0.20;;;2.50;99.90;;;;;;5039949;28;20443;-78
2023/12/05 07:56:12;;;;;;;0.40;0.30;;;2.50;99.90;;;;;;5039213;28;20474;-78
2023/12/05 07:58:37;;;;;;;0.40;0.30;;;2.60;99.90;;;;;;5040237;28;20454;-78
2023/12/05 08:01:05;;;;;;;0.57;0.57;;;2.60;99.90;;;;;;5040852;28;20443;-78
2023/12/05 08:03:33;;;;;;;0.30;0.27;;;2.50;99.90;;;;;;5040576;28;20701;-78
2023/12/05 08:06:01;;;;;;;0.30;0.20;;;2.60;99.90;;;;;;5040300;28;20487;-78
2023/12/05 08:08:29;;;;;;;0.43;0.40;;;2.50;99.90;;;;;;5039808;28;20447;-78
2023/12/05 08:10:58;;;;;;;0.50;0.50;;;2.60;99.90;;;;;;5040273;28;20542;-79
2023/12/05 08:13:24;;;;;;;0.40;0.40;;;2.60;99.90;;;;;;5040693;28;20442;-78
2023/12/05 08:15:51;;;;;;;0.63;0.40;;;2.60;99.90;;;;;;5040201;28;20467;-78
2023/12/05 08:18:18;;;;;;;0.40;0.37;;;2.60;99.90;;;;;;5039927;28;20446;-78
2023/12/05 08:20:45;;;;;;;0.30;0.30;;;2.70;99.90;;;;;;5040140;28;20443;-79
2023/12/05 08:23:12;;;;;;;1.40;0.50;;;2.80;99.90;;;;;;5039612;28;20451;-78
2023/12/05 08:25:38;;;;;;;0.30;0.30;;;3.00;99.90;;;;;;5038992;28;20426;-79
2023/12/05 08:28:06;;;;;;;0.30;0.23;;;3.10;99.90;;;;;;5039635;28;20465;-78
2023/12/05 08:30:33;;;;;;;1.67;0.50;;;3.20;99.90;;;;;;5039707;28;20443;-79
2023/12/05 08:33:00;;;;;;;0.40;0.40;;;3.20;99.90;;;;;;5039101;28;20454;-79
2023/12/05 08:35:28;;;;;;;5.60;0.90;;;3.30;99.90;;;;;;5039147;28;20454;-78
2023/12/05 08:37:55;;;;;;;0.30;0.30;;;3.30;99.90;;;;;;5038958;28;20469;-78
2023/12/05 08:40:21;;;;;;;0.40;0.30;;;3.40;99.90;;;;;;5038691;28;20486;-78
2023/12/05 08:42:48;;;;;;;0.40;0.30;;;3.50;99.90;;;;;;5038450;28;20447;-78
2023/12/05 08:45:18;;;;;;;0.40;0.40;;;3.50;99.90;;;;;;5037578;28;20486;-78
2023/12/05 08:47:45;;;;;;;0.63;0.40;;;3.60;99.90;;;;;;5037837;28;20474;-78
2023/12/05 08:50:12;;;;;;;0.40;0.40;;;3.90;99.90;;;;;;5038095;28;20867;-78
2023/12/05 08:52:39;;;;;;;0.30;0.30;;;4.00;99.90;;;;;;5038511;28;20458;-78
2023/12/05 08:55:07;;;;;;;2.17;0.57;;;4.10;99.90;;;;;;5039309;28;20449;-78
2023/12/05 08:57:33;;;;;;;0.40;0.30;;;4.20;99.90;;;;;;5038994;28;20470;-78
2023/12/05 09:00:02;;;;;;;1.93;0.43;;;4.20;99.90;;;;;;5036657;28;20516;-82
2023/12/05 09:02:30;;;;;;;0.40;0.40;;;4.40;99.90;;;;;;5037496;28;20455;-79
2023/12/05 09:04:57;;;;;;;0.30;0.30;;;4.50;99.90;;;;;;5037387;28;20486;-80
2023/12/05 09:07:24;;;;;;;1.47;0.40;;;4.70;99.90;;;;;;5038984;28;20483;-79
2023/12/05 09:09:51;;;;;;;1.23;0.63;;;4.80;99.90;;;;;;5037862;28;20450;-80
2023/12/05 09:12:18;;;;;;;0.60;0.53;;;4.80;99.90;;;;;;5038695;28;20462;-80
2023/12/05 09:14:44;;;;;;;0.37;0.37;;;4.70;99.90;;;;;;5038992;28;20443;-80
2023/12/05 09:17:13;;;;;;;2.03;0.50;;;4.70;99.90;;;;;;5038684;28;20467;-79
2023/12/05 09:19:41;;;;;;;0.30;0.30;;;4.70;99.90;;;;;;5038782;28;20823;-81
2023/12/05 09:22:08;;;;;;;0.30;0.30;;;4.70;99.90;;;;;;5037661;28;20457;-81
2023/12/05 09:24:35;;;;;;;0.30;0.30;;;4.60;99.90;;;;;;5037528;28;20485;-81
2023/12/05 09:27:02;;;;;;;0.40;0.30;;;4.60;99.90;;;;;;5036957;28;20474;-81
2023/12/05 09:29:29;;;;;;;0.97;0.40;;;4.60;99.90;;;;;;5037107;28;20457;-81
2023/12/05 09:31:56;;;;;;;0.50;0.50;;;4.60;99.90;;;;;;5036827;28;20819;-81
2023/12/05 09:34:22;;;;;;;0.33;0.33;;;4.60;99.90;;;;;;5036418;28;20442;-81
2023/12/05 09:36:50;;;;;;;0.40;0.33;;;4.70;99.90;;;;;;5036592;28;20462;-81
2023/12/05 09:39:17;;;;;;;0.40;0.40;;;4.80;99.90;;;;;;5036203;28;20442;-81
2023/12/05 09:41:48;;;;;;;0.60;0.60;;;4.90;99.90;;;;;;5036128;28;20443;-81
2023/12/05 09:44:17;;;;;;;0.33;0.30;;;5.00;99.90;;;;;;5036028;28;20474;-81
2023/12/05 09:46:50;;;;;;;0.70;0.50;;;5.30;99.90;;;;;;5035552;28;21009;-81
2023/12/05 09:49:19;;;;;;;0.50;0.33;;;5.90;99.90;;;;;;5038025;28;20790;-81
2023/12/05 09:51:46;;;;;;;0.50;0.33;;;6.50;99.90;;;;;;5041424;28;20435;-81
2023/12/05 09:54:15;;;;;;;0.40;0.30;;;7.10;99.90;;;;;;5034099;28;21010;-81
2023/12/05 09:56:43;;;;;;;0.40;0.40;;;7.50;99.90;;;;;;5034091;28;20463;-81
2023/12/05 09:59:10;;;;;;;0.50;0.50;;;7.60;99.90;;;;;;5034349;28;20451;-81
2023/12/05 10:01:39;;;;;;;0.30;0.30;;;7.30;99.90;;;;;;5034464;28;20442;-82
2023/12/05 10:04:11;;;;;;;0.53;0.53;;;7.00;99.90;;;;;;5034307;28;20474;-81
2023/12/05 10:06:38;;;;;;;0.70;0.50;;;6.60;99.90;;;;;;5034146;28;20490;-81
2023/12/05 10:09:06;;;;;;;1.03;0.50;;;6.60;99.90;;;;;;5035044;28;20447;-81
2023/12/05 10:11:35;;;;;;;1.93;0.60;;;6.70;99.90;;;;;;5036060;28;20454;-81
2023/12/05 10:14:02;;;;;;;1.00;0.60;;;6.60;99.90;;;;;;5034894;28;20958;-81
2023/12/05 10:16:31;;;;;;;2.73;0.40;;;6.60;99.90;;;;;;5035010;28;20470;-83
2023/12/05 10:18:58;;;;;;;1.70;0.70;;;6.80;99.90;;;;;;5034452;28;20451;-81
2023/12/05 10:21:25;;;;;;;0.80;0.57;;;6.90;99.90;;;;;;5034250;28;20924;-81
2023/12/05 10:23:52;;;;;;;0.37;0.33;;;6.60;99.90;;;;;;5034459;28;21058;-81
2023/12/05 10:26:19;;;;;;;0.40;0.40;;;6.40;99.90;;;;;;5034363;28;20474;-81
2023/12/05 10:28:55;;;;;;;0.50;0.37;;;6.20;99.90;;;;;;5035590;28;20838;-81
2023/12/05 10:31:22;;;;;;;0.60;0.60;;;6.10;99.90;;;;;;5035850;28;20426;-81
2023/12/05 10:33:50;;;;;;;2.80;0.63;;;6.00;99.90;;;;;;5036124;28;20454;-81
2023/12/05 10:36:17;;;;;;;0.30;0.30;;;5.90;99.90;;;;;;5036322;28;20459;-81
2023/12/05 10:38:45;;;;;;;0.80;0.60;;;6.00;99.90;;;;;;5035582;28;20781;-81
2023/12/05 10:41:13;;;;;;;0.50;0.30;;;6.00;99.90;;;;;;5035584;28;20518;-80
2023/12/05 10:43:48;;;;;;;1.27;0.60;;;6.20;99.90;;;;;;5034988;28;20451;-81
2023/12/05 10:46:16;;;;;;;0.50;0.50;;;6.40;99.90;;;;;;5034363;28;20497;-81
2023/12/05 10:48:44;;;;;;;0.50;0.50;;;6.60;99.90;;;;;;5034591;28;20427;-81
2023/12/05 10:51:11;;;;;;;0.40;0.40;;;6.70;99.90;;;;;;5034419;28;20446;-81
2023/12/05 10:53:40;;;;;;;0.73;0.60;;;6.70;99.90;;;;;;5035017;28;20541;-81
2023/12/05 10:56:12;;;;;;;0.50;0.50;;;6.70;99.90;;;;;;5033951;28;20998;-81
2023/12/05 10:58:40;;;;;;;1.60;0.40;;;6.60;99.90;;;;;;5035843;28;20419;-81
2023/12/05 11:01:09;;;;;;;0.93;0.90;;;6.60;99.90;;;;;;5039547;28;20485;-81
2023/12/05 11:03:38;;;;;;;0.43;0.43;;;6.60;99.90;;;;;;5035784;28;20447;-81
2023/12/05 11:06:05;;;;;;;0.50;0.40;;;6.50;99.90;;;;;;5034798;28;20536;-81
2023/12/05 11:08:33;;;;;;;0.43;0.43;;;6.30;99.90;;;;;;5036101;28;20450;-81
2023/12/05 11:11:02;;;;;;;0.30;0.20;;;6.20;99.90;;;;;;5035597;28;20524;-81
2023/12/05 11:13:31;;;;;;;0.30;0.30;;;6.20;99.90;;;;;;5036037;28;20519;-81
2023/12/05 11:16:03;;;;;;;0.70;0.50;;;6.10;99.90;;;;;;5036881;28;20521;-81
2023/12/05 11:18:36;;;;;;;0.40;0.37;;;6.00;99.90;;;;;;5036536;28;20431;-81
2023/12/05 11:21:17;;;;;;;0.50;0.30;;;6.00;99.90;;;;;;5035466;28;20430;-81
2023/12/05 11:23:59;;;;;;;0.50;0.40;;;6.00;99.90;;;;;;5034915;28;20419;-81
2023/12/05 11:26:43;;;;;;;0.40;0.30;;;5.90;99.90;;;;;;5035089;28;20487;-82
2023/12/05 11:29:23;;;;;;;0.80;0.40;;;5.90;99.90;;;;;;5036057;28;20843;-81
2023/12/05 11:31:59;;;;;;;0.30;0.30;;;5.90;99.90;;;;;;5038216;28;20763;-82
2023/12/05 11:34:42;;;;;;;0.30;0.30;;;5.80;99.90;;;;;;5039419;28;20434;-81
2023/12/05 11:37:28;;;;;;;0.30;0.30;;;5.70;99.90;;;;;;5038946;28;20478;-81
2023/12/05 11:39:55;;;;;;;0.77;0.60;;;5.70;99.90;;;;;;5039438;28;20907;-81
2023/12/05 11:42:22;;;;;;;0.70;0.30;;;5.70;99.90;;;;;;5038692;28;20438;-81
2023/12/05 11:44:49;;;;;;;0.30;0.30;;;5.70;99.90;;;;;;5038079;28;20476;-81
2023/12/05 11:47:17;;;;;;;0.30;0.30;;;5.70;99.90;;;;;;5038248;28;20845;-81
2023/12/05 11:49:49;;;;;;;0.50;0.40;;;5.70;99.90;;;;;;5038485;28;20432;-82
2023/12/05 11:52:19;;;;;;;0.40;0.40;;;5.70;99.90;;;;;;5038177;28;20517;-82
2023/12/05 11:54:48;;;;;;;0.30;0.30;;;5.60;99.90;;;;;;5038251;28;20450;-82
2023/12/05 11:57:16;;;;;;;0.37;0.30;;;5.60;99.90;;;;;;5037816;28;20540;-81
2023/12/05 11:59:45;;;;;;;1.30;0.40;;;5.50;99.90;;;;;;5039133;28;20956;-81
2023/12/05 12:02:18;;;;;;;0.40;0.40;;;5.40;99.90;;;;;;5045249;28;20454;-81
2023/12/05 12:04:46;;;;;;;0.47;0.47;;;5.40;99.90;;;;;;5036467;28;20462;-81
2023/12/05 12:07:12;;;;;;;0.50;0.50;;;5.40;99.90;;;;;;5036564;28;20478;-81
2023/12/05 12:09:42;;;;;;;0.50;0.50;;;5.30;99.90;;;;;;5036569;28;20442;-81
2023/12/05 12:12:09;;;;;;;0.70;0.30;;;5.20;99.90;;;;;;5036621;28;20430;-81
2023/12/05 12:14:38;;;;;;;1.07;0.40;;;5.20;99.90;;;;;;5036686;28;20443;-82
2023/12/05 12:17:05;;;;;;;0.63;0.40;;;5.20;99.90;;;;;;5036916;28;20466;-82
2023/12/05 12:19:36;;;;;;;0.30;0.27;;;5.20;99.90;;;;;;5036829;28;20472;-82
2023/12/05 12:22:06;;;;;;;0.50;0.50;;;5.20;99.90;;;;;;5036864;28;20935;-81
2023/12/05 12:24:33;;;;;;;0.60;0.47;;;5.30;99.90;;;;;;5036769;28;20431;-82
2023/12/05 12:27:02;;;;;;;0.40;0.30;;;5.30;99.90;;;;;;5036868;28;20466;-82
2023/12/05 12:29:28;;;;;;;0.40;0.40;;;5.30;99.90;;;;;;5036802;28;20473;-81
2023/12/05 12:32:06;;;;;;;0.57;0.57;;;5.30;99.90;;;;;;5036339;28;20461;-82
2023/12/05 12:34:33;;;;;;;0.30;0.30;;;5.30;99.90;;;;;;5036528;28;20433;-82
2023/12/05 12:37:00;;;;;;;0.73;0.30;;;5.30;99.90;;;;;;5036673;28;20462;-82
2023/12/05 12:39:27;;;;;;;0.40;0.40;;;5.30;99.90;;;;;;5036730;28;20457;-82
2023/12/05 12:41:54;;;;;;;0.40;0.40;;;5.30;99.90;;;;;;5036589;28;20826;-82
2023/12/05 12:44:22;;;;;;;0.77;0.30;;;5.20;99.90;;;;;;5036930;28;20438;-82
2023/12/05 12:46:49;;;;;;;0.80;0.33;;;5.30;99.90;;;;;;5036194;28;21028;-81
2023/12/05 12:49:16;;;;;;;0.40;0.40;;;5.20;99.90;;;;;;5036463;28;20450;-81
2023/12/05 12:51:44;;;;;;;0.40;0.30;;;5.30;99.90;;;;;;5036760;28;20825;-81
2023/12/05 12:54:11;;;;;;;0.40;0.30;;;5.30;99.90;;;;;;5042130;28;20443;-82
2023/12/05 12:56:40;;;;;;;0.30;0.20;;;5.30;99.90;;;;;;5037738;28;20466;-82
2023/12/05 12:59:07;;;;;;;0.50;0.50;;;5.30;99.90;;;;;;5037863;28;20518;-82
2023/12/05 13:01:38;;;;;;;0.40;0.30;;;5.20;99.90;;;;;;5037576;28;20447;-82